Time;durP1;ratioP1;P1;durP2;ratioP2;P2;SDS_P1;SDS_P2;PMS_P1;PMS_P2;Temp;Humidity;BMP_temperature;BMP_pressure;BME280_temperature;BME280_humidity;BME280_pressure;Samples;Min_cycle;Max_cycle;Signal;HPM_P1;HPM_P2
2023/01/05 00:00:19;;;;;;;1.30;0.68;;;;;;;8.56;100.00;96310.88;1025910;28;20069;-67
2023/01/05 00:00:50;;;;;;;0.82;0.70;;;;;;;8.57;100.00;96303.81;1029119;28;20034;-68
2023/01/05 00:01:20;;;;;;;0.63;0.60;;;;;;;8.57;100.00;96314.28;1026082;28;20730;-68
2023/01/05 00:01:51;;;;;;;1.02;0.55;;;;;;;8.56;100.00;96297.00;1022616;28;20078;-69
2023/01/05 00:02:21;;;;;;;0.57;0.52;;;;;;;8.59;100.00;96297.31;1026172;28;20152;-70
2023/01/05 00:02:52;;;;;;;0.70;0.50;;;;;;;8.57;100.00;96288.91;1030450;28;20022;-70
2023/01/05 00:03:22;;;;;;;0.40;0.40;;;;;;;8.57;100.00;96286.28;1030437;28;20026;-69
2023/01/05 00:03:53;;;;;;;0.63;0.50;;;;;;;8.57;100.00;96288.13;1029500;28;20034;-71
2023/01/05 00:04:23;;;;;;;0.77;0.60;;;;;;;8.49;100.00;96284.06;1031080;28;20018;-67
2023/01/05 00:04:54;;;;;;;0.60;0.60;;;;;;;8.54;100.00;96284.16;1026270;28;20015;-69
2023/01/05 00:05:24;;;;;;;1.20;0.60;;;;;;;8.54;100.00;96289.38;1027030;28;20030;-69
2023/01/05 00:06:01;;;;;;;0.80;0.70;;;;;;;8.50;100.00;96291.66;1035009;28;20030;-70
2023/01/05 00:06:32;;;;;;;0.90;0.52;;;;;;;8.46;100.00;96295.78;1028172;28;20030;-68
2023/01/05 00:07:02;;;;;;;0.73;0.50;;;;;;;8.47;100.00;96283.50;1030506;28;20934;-68
2023/01/05 00:07:33;;;;;;;0.88;0.50;;;;;;;8.53;100.00;96282.56;1030053;28;20085;-71
2023/01/05 00:08:03;;;;;;;0.77;0.65;;;;;;;8.53;100.00;96297.47;1026358;28;20093;-68
2023/01/05 00:08:34;;;;;;;0.95;0.60;;;;;;;8.52;100.00;96301.09;1025852;28;20023;-68
2023/01/05 00:09:05;;;;;;;1.23;0.77;;;;;;;8.49;100.00;96286.69;1028730;28;20034;-70
2023/01/05 00:09:37;;;;;;;0.80;0.70;;;;;;;8.44;100.00;96290.00;1022031;28;20127;-69
2023/01/05 00:22:29;;;;;;;0.68;0.60;;;;;;;8.40;100.00;96283.66;1022078;28;21068;-69
2023/01/05 00:22:29;;;;;;;0.73;0.60;;;;;;;8.58;100.00;96289.69;1038191;28;20295;-68
2023/01/05 00:23:00;;;;;;;1.08;0.60;;;;;;;8.57;100.00;96283.69;1033681;28;20771;-70
2023/01/05 00:23:30;;;;;;;0.70;0.70;;;;;;;8.61;100.00;96284.00;1033036;28;20276;-68
2023/01/05 00:24:01;;;;;;;0.63;0.60;;;;;;;8.58;100.00;96277.41;1035979;28;20040;-70
2023/01/05 00:24:31;;;;;;;0.32;0.30;;;;;;;8.62;100.00;96283.78;1027283;28;20088;-67
2023/01/05 00:25:15;;;;;;;0.75;0.52;;;;;;;8.60;100.00;96271.97;1027517;28;20034;-72
2023/01/05 00:25:46;;;;;;;0.22;0.22;;;;;;;8.62;100.00;96280.38;1027145;28;20035;-68
2023/01/05 00:26:16;;;;;;;0.93;0.60;;;;;;;8.63;100.00;96281.94;1026033;28;20277;-68
2023/01/05 00:26:47;;;;;;;1.75;0.63;;;;;;;8.62;100.00;96270.69;1016411;28;20099;-71
2023/01/05 00:27:17;;;;;;;1.45;0.70;;;;;;;8.48;100.00;96253.69;1018281;29;20469;-68
2023/01/05 00:27:50;;;;;;;0.52;0.38;;;;;;;8.62;100.00;96273.31;1020569;28;20035;-71
2023/01/05 00:28:20;;;;;;;0.95;0.40;;;;;;;8.60;100.00;96264.91;1022920;28;20073;-68
2023/01/05 00:28:51;;;;;;;0.63;0.63;;;;;;;8.54;100.00;96260.59;1025101;28;20279;-68
2023/01/05 00:29:21;;;;;;;0.50;0.47;;;;;;;8.58;100.00;96276.63;1029422;28;20030;-71
2023/01/05 00:29:52;;;;;;;2.15;0.70;;;;;;;8.56;100.00;96260.38;1022435;29;20102;-69
2023/01/05 00:30:42;;;;;;;0.50;0.30;;;;;;;8.65;100.00;96279.88;1026621;28;20027;-67
2023/01/05 00:31:13;;;;;;;2.40;0.70;;;;;;;8.65;100.00;96267.63;1030728;28;20170;-69
2023/01/05 00:31:43;;;;;;;0.98;0.73;;;;;;;8.60;100.00;96267.50;1028929;28;20843;-68
2023/01/05 00:32:14;;;;;;;0.30;0.30;;;;;;;8.62;100.00;96260.22;1028928;28;20041;-72
2023/01/05 00:32:44;;;;;;;0.47;0.47;;;;;;;8.64;100.00;96263.38;1030225;28;20027;-69
2023/01/05 00:33:15;;;;;;;0.50;0.50;;;;;;;8.58;100.00;96253.88;1029662;28;20108;-71
2023/01/05 00:33:46;;;;;;;0.60;0.60;;;;;;;8.68;100.00;96267.09;1028754;28;20508;-72
2023/01/05 00:34:16;;;;;;;0.57;0.40;;;;;;;8.68;100.00;96263.72;1030133;28;20269;-68
2023/01/05 00:34:47;;;;;;;0.80;0.57;;;;;;;8.68;100.00;96269.72;1026257;28;20113;-70
2023/01/05 00:35:18;;;;;;;0.40;0.40;;;;;;;8.65;100.00;96259.75;1022621;28;20712;-69
2023/01/05 00:35:48;;;;;;;1.10;0.60;;;;;;;8.68;100.00;96258.47;1021755;28;20093;-68
2023/01/05 00:36:19;;;;;;;0.30;0.30;;;;;;;8.66;100.00;96271.81;1026257;28;20074;-69
2023/01/05 00:36:49;;;;;;;0.52;0.40;;;;;;;8.62;100.00;96249.78;1026548;28;20038;-68
2023/01/05 00:37:21;;;;;;;0.88;0.60;;;;;;;8.65;100.00;96277.25;1022694;28;20560;-69
2023/01/05 00:37:51;;;;;;;1.67;0.47;;;;;;;8.68;100.00;96261.88;1026516;28;20050;-68
2023/01/05 00:38:22;;;;;;;0.65;0.40;;;;;;;8.68;100.00;96254.03;1026444;28;20266;-67
2023/01/05 00:38:52;;;;;;;0.65;0.40;;;;;;;8.66;100.00;96255.31;1022975;28;20031;-70
2023/01/05 00:39:26;;;;;;;0.60;0.50;;;;;;;8.65;100.00;96249.31;1030306;28;20084;-68
2023/01/05 00:39:56;;;;;;;0.43;0.43;;;;;;;8.67;100.00;96249.84;1026747;28;20019;-68
2023/01/05 00:40:27;;;;;;;0.50;0.40;;;;;;;8.70;100.00;96243.34;1022853;28;20267;-68
2023/01/05 00:40:57;;;;;;;1.05;0.68;;;;;;;8.69;100.00;96253.03;1024660;28;20047;-66
2023/01/05 00:41:28;;;;;;;0.30;0.30;;;;;;;8.73;100.00;96251.50;1026993;28;20444;-69
2023/01/05 00:41:58;;;;;;;0.85;0.50;;;;;;;8.70;100.00;96241.50;1027954;28;20029;-70
2023/01/05 00:42:29;;;;;;;1.25;0.40;;;;;;;8.71;100.00;96245.72;1028737;28;20105;-69
2023/01/05 00:42:59;;;;;;;0.85;0.57;;;;;;;8.68;100.00;96243.56;1034562;28;20057;-68
2023/01/05 00:43:30;;;;;;;0.65;0.50;;;;;;;8.68;100.00;96254.03;1029491;28;20049;-68
2023/01/05 00:44:00;;;;;;;1.33;0.60;;;;;;;8.69;100.00;96252.22;1022511;28;20501;-70
2023/01/05 00:44:31;;;;;;;0.65;0.57;;;;;;;8.67;100.00;96256.91;1030003;28;20468;-69
2023/01/05 00:45:02;;;;;;;0.50;0.38;;;;;;;8.69;100.00;96245.16;1026442;28;20033;-67
2023/01/05 00:45:32;;;;;;;0.70;0.52;;;;;;;8.66;100.00;96245.66;1029814;28;20019;-71
2023/01/05 00:46:06;;;;;;;1.27;0.63;;;;;;;8.71;100.00;96263.22;1028564;28;20036;-71
2023/01/05 00:46:36;;;;;;;0.63;0.55;;;;;;;8.67;100.00;96247.22;1027407;28;20086;-70
2023/01/05 00:47:07;;;;;;;1.00;0.60;;;;;;;8.68;100.00;96248.78;1032791;28;20319;-71
2023/01/05 00:47:37;;;;;;;0.93;0.40;;;;;;;8.67;100.00;96247.22;1039815;28;20470;-67
2023/01/05 00:48:08;;;;;;;0.77;0.65;;;;;;;8.71;100.00;96258.78;1034533;28;20025;-69
2023/01/05 00:48:41;;;;;;;0.40;0.40;;;;;;;8.73;100.00;96250.72;1036755;28;20071;-67
2023/01/05 00:49:12;;;;;;;0.50;0.50;;;;;;;8.70;100.00;96259.84;1034582;28;20943;-68
2023/01/05 00:49:42;;;;;;;0.63;0.50;;;;;;;8.71;100.00;96284.16;1030906;28;20038;-72
2023/01/05 00:50:14;;;;;;;0.43;0.40;;;;;;;8.73;100.00;96261.19;1030233;28;20085;-70
2023/01/05 00:50:45;;;;;;;0.50;0.50;;;;;;;8.76;100.00;96268.56;1026419;28;20516;-71
2023/01/05 00:51:15;;;;;;;0.50;0.40;;;;;;;8.74;100.00;96257.53;1021232;29;20271;-67
2023/01/05 00:51:46;;;;;;;0.63;0.63;;;;;;;8.71;100.00;96253.56;1022280;29;20528;-67
2023/01/05 00:52:16;;;;;;;0.40;0.40;;;;;;;8.73;100.00;96251.50;1022426;28;20039;-69
2023/01/05 00:52:47;;;;;;;1.17;0.60;;;;;;;8.71;100.00;96248.31;1022201;28;20101;-69
2023/01/05 00:53:17;;;;;;;0.75;0.65;;;;;;;8.69;100.00;96249.63;1030582;28;20477;-70
2023/01/05 00:53:48;;;;;;;0.70;0.38;;;;;;;8.67;100.00;96247.22;1030206;28;20030;-70
2023/01/05 00:54:18;;;;;;;1.40;0.98;;;;;;;8.71;100.00;96252.78;1026719;28;20107;-68
2023/01/05 00:54:49;;;;;;;0.85;0.70;;;;;;;8.68;100.00;96254.03;1034349;28;20041;-69
2023/01/05 00:55:19;;;;;;;0.55;0.45;;;;;;;8.71;100.00;96256.19;1026181;28;20121;-67
2023/01/05 00:55:56;;;;;;;1.10;0.60;;;;;;;8.66;100.00;96243.03;1017841;28;20508;-68
2023/01/05 00:56:27;;;;;;;0.60;0.40;;;;;;;8.64;100.00;96250.31;1018308;29;20579;-71
2023/01/05 00:56:57;;;;;;;0.57;0.43;;;;;;;8.65;100.00;96254.53;1017318;28;20296;-68
2023/01/05 00:57:28;;;;;;;0.95;0.52;;;;;;;8.62;100.00;96247.16;1026852;28;20022;-69
2023/01/05 00:57:58;;;;;;;1.45;0.80;;;;;;;8.62;100.00;96241.13;1026323;28;20163;-68
2023/01/05 00:58:29;;;;;;;0.50;0.50;;;;;;;8.61;100.00;96252.59;1030336;28;20384;-73
2023/01/05 00:58:59;;;;;;;0.45;0.40;;;;;;;8.69;100.00;96234.72;1030466;28;20070;-69
2023/01/05 00:59:29;;;;;;;0.35;0.35;;;;;;;8.68;100.00;96238.34;1030269;28;20065;-67
2023/01/05 01:00:03;;;;;;;0.63;0.35;;;;;;;8.70;100.00;96233.66;1026518;28;20026;-70
2023/01/05 01:00:33;;;;;;;0.68;0.40;;;;;;;8.66;100.00;96235.19;1030753;28;20110;-69
2023/01/05 01:01:10;;;;;;;1.65;0.70;;;;;;;8.64;100.00;96237.22;1034806;28;20252;-68
2023/01/05 01:01:44;;;;;;;0.88;0.60;;;;;;;8.66;100.00;96239.63;1039922;28;20379;-72
2023/01/05 01:02:14;;;;;;;0.57;0.57;;;;;;;8.65;100.00;96236.22;1032623;28;20814;-70
2023/01/05 01:02:45;;;;;;;5.22;0.55;;;;;;;8.63;100.00;96235.66;1030011;28;20269;-70
2023/01/05 01:03:15;;;;;;;0.43;0.43;;;;;;;8.61;100.00;96229.84;1022983;28;20106;-70
2023/01/05 01:03:46;;;;;;;0.52;0.35;;;;;;;8.65;100.00;96238.84;1026371;28;20034;-69
2023/01/05 01:04:16;;;;;;;0.50;0.50;;;;;;;8.63;100.00;96234.88;1034277;28;20474;-68
2023/01/05 01:04:47;;;;;;;0.63;0.50;;;;;;;8.56;100.00;96229.78;1033051;28;20045;-71
2023/01/05 01:05:17;;;;;;;0.73;0.60;;;;;;;8.57;100.00;96233.97;1030393;28;20072;-68
2023/01/05 01:05:57;;;;;;;1.10;0.50;;;;;;;8.65;100.00;96241.44;1027163;28;20027;-70
2023/01/05 01:06:28;;;;;;;0.52;0.40;;;;;;;8.67;100.00;96242.00;1024746;28;20023;-68
2023/01/05 01:06:58;;;;;;;2.58;0.70;;;;;;;8.70;100.00;96241.50;1022232;29;20405;-67
2023/01/05 01:07:29;;;;;;;1.08;0.68;;;;;;;8.70;100.00;96245.97;1024017;28;20022;-69
2023/01/05 01:07:59;;;;;;;0.40;0.40;;;;;;;8.70;100.00;96240.72;1027435;28;20019;-69
2023/01/05 01:08:30;;;;;;;1.48;0.50;;;;;;;8.68;100.00;96246.19;1030471;28;20026;-69
2023/01/05 01:09:00;;;;;;;1.23;0.52;;;;;;;8.69;100.00;96239.94;1025300;28;20089;-68
2023/01/05 01:09:31;;;;;;;1.98;0.50;;;;;;;8.67;100.00;96242.00;1022222;28;20540;-69
2023/01/05 01:10:01;;;;;;;1.20;0.68;;;;;;;8.70;100.00;96241.50;1034115;28;20025;-67
2023/01/05 01:10:32;;;;;;;0.90;0.45;;;;;;;8.71;100.00;96253.56;1030278;28;20063;-69
2023/01/05 01:11:05;;;;;;;0.55;0.40;;;;;;;8.70;100.00;96249.38;1026574;28;20618;-68
2023/01/05 01:11:36;;;;;;;0.77;0.70;;;;;;;8.70;100.00;96254.59;1029444;28;20026;-69
2023/01/05 01:12:06;;;;;;;0.30;0.30;;;;;;;8.67;100.00;96242.00;1031340;28;20820;-69
2023/01/05 01:12:37;;;;;;;0.43;0.43;;;;;;;8.69;100.00;96249.63;1036413;28;20029;-69
2023/01/05 01:13:07;;;;;;;0.50;0.38;;;;;;;8.71;100.00;96248.31;1039606;28;20489;-69
2023/01/05 01:13:38;;;;;;;1.98;0.45;;;;;;;8.67;100.00;96247.22;1042504;28;20021;-69
2023/01/05 01:14:09;;;;;;;0.65;0.55;;;;;;;8.67;100.00;96249.84;1037504;28;20025;-67
2023/01/05 01:14:40;;;;;;;1.00;0.75;;;;;;;8.63;100.00;96235.66;1030242;28;20068;-68
2023/01/05 01:15:10;;;;;;;0.55;0.47;;;;;;;8.58;100.00;96246.03;1034320;28;20311;-69
2023/01/05 01:15:41;;;;;;;0.73;0.35;;;;;;;8.56;100.00;96236.84;1033696;28;20037;-69
2023/01/05 01:16:13;;;;;;;0.98;0.60;;;;;;;8.44;100.00;96235.06;1030584;28;20022;-72
2023/01/05 01:16:43;;;;;;;0.82;0.50;;;;;;;8.44;100.00;96240.31;1033725;28;20026;-70
2023/01/05 01:17:15;;;;;;;1.05;0.50;;;;;;;8.35;100.00;96219.97;1038281;28;20284;-69
2023/01/05 01:17:45;;;;;;;0.77;0.55;;;;;;;8.38;100.00;96224.75;1027166;28;20030;-72
2023/01/05 01:18:16;;;;;;;4.32;0.80;;;;;;;8.30;100.00;96233.75;1028101;28;20791;-68
2023/01/05 01:18:46;;;;;;;0.80;0.70;;;;;;;8.17;100.00;96219.16;1030488;28;20130;-70
2023/01/05 01:19:19;;;;;;;0.65;0.57;;;;;;;8.11;100.00;96235.78;1029311;28;20758;-69
2023/01/05 01:19:49;;;;;;;1.35;0.60;;;;;;;8.06;100.00;96230.47;1034619;28;20029;-70
2023/01/05 01:20:20;;;;;;;1.77;0.55;;;;;;;8.00;100.00;96232.19;1031728;28;20392;-70
2023/01/05 01:20:50;;;;;;;2.85;0.60;;;;;;;8.02;100.00;96247.66;1030935;28;20030;-69
2023/01/05 01:21:20;;;;;;;0.77;0.50;;;;;;;7.98;100.00;96234.25;1034239;28;20543;-70
2023/01/05 01:21:51;;;;;;;0.75;0.60;;;;;;;7.94;100.00;96232.31;1042115;28;20025;-69
2023/01/05 01:22:22;;;;;;;0.77;0.50;;;;;;;8.04;100.00;96242.97;1039569;28;20048;-69
2023/01/05 01:22:52;;;;;;;1.40;0.70;;;;;;;8.07;100.00;96237.28;1036086;28;20115;-68
2023/01/05 01:23:23;;;;;;;2.42;0.75;;;;;;;8.11;100.00;96232.38;1029007;28;20586;-70
2023/01/05 01:23:53;;;;;;;0.60;0.60;;;;;;;8.12;100.00;96240.00;1031092;28;20073;-68
2023/01/05 01:24:26;;;;;;;0.63;0.60;;;;;;;8.19;100.00;96255.53;1025518;28;20030;-73
2023/01/05 01:24:56;;;;;;;0.40;0.40;;;;;;;8.18;100.00;96259.97;1023813;28;20035;-70
2023/01/05 01:25:27;;;;;;;0.50;0.50;;;;;;;8.16;100.00;96262.03;1026645;28;20269;-70
2023/01/05 01:25:57;;;;;;;0.35;0.30;;;;;;;8.11;100.00;96253.28;1027035;28;20082;-70
2023/01/05 01:26:28;;;;;;;0.40;0.40;;;;;;;8.06;100.00;96255.81;1027695;28;20031;-68
2023/01/05 01:26:58;;;;;;;0.82;0.50;;;;;;;8.01;100.00;96266.94;1036949;28;20036;-68
2023/01/05 01:27:30;;;;;;;0.40;0.40;;;;;;;8.04;100.00;96258.66;1031322;28;20033;-70
2023/01/05 01:28:00;;;;;;;0.45;0.40;;;;;;;8.15;100.00;96257.81;1024020;28;20055;-69
2023/01/05 01:28:31;;;;;;;2.10;0.77;;;;;;;8.10;100.00;96246.47;1025213;28;20267;-72
2023/01/05 01:29:01;;;;;;;2.35;0.50;;;;;;;8.12;100.00;96254.88;1027408;28;20038;-68
2023/01/05 01:29:32;;;;;;;2.38;0.55;;;;;;;8.13;100.00;96249.41;1025289;28;20058;-72
2023/01/05 01:30:02;;;;;;;0.65;0.60;;;;;;;8.03;100.00;96230.94;1023560;28;20309;-68
2023/01/05 01:30:33;;;;;;;0.40;0.40;;;;;;;8.07;100.00;96237.28;1027155;28;20050;-72
2023/01/05 01:31:03;;;;;;;0.47;0.47;;;;;;;8.25;100.00;96244.94;1026744;28;20039;-69
2023/01/05 01:31:34;;;;;;;1.17;0.70;;;;;;;8.25;100.00;96233.69;1031142;28;20026;-71
2023/01/05 01:32:05;;;;;;;0.73;0.65;;;;;;;8.19;100.00;96240.63;1026925;28;20031;-69
2023/01/05 01:32:35;;;;;;;0.52;0.52;;;;;;;8.16;100.00;96235.09;1031236;28;20034;-69
2023/01/05 01:33:05;;;;;;;1.23;0.60;;;;;;;8.12;100.00;96244.44;1031236;28;20113;-70
2023/01/05 01:33:38;;;;;;;0.65;0.50;;;;;;;8.12;100.00;96239.22;1031001;28;20026;-71
2023/01/05 01:34:09;;;;;;;0.50;0.43;;;;;;;8.20;100.00;96231.75;1027025;28;20019;-69
2023/01/05 01:34:39;;;;;;;0.35;0.35;;;;;;;8.12;100.00;96229.53;1027272;28;20281;-69
2023/01/05 01:35:10;;;;;;;0.50;0.43;;;;;;;8.25;100.00;96228.47;1026993;28;20034;-70
2023/01/05 01:35:40;;;;;;;0.63;0.50;;;;;;;8.14;100.00;96229.28;1026633;28;20030;-69
2023/01/05 01:36:11;;;;;;;0.55;0.50;;;;;;;8.12;100.00;96232.16;1026962;28;20552;-71
2023/01/05 01:36:41;;;;;;;0.65;0.60;;;;;;;8.28;100.00;96235.81;1023585;28;20035;-70
2023/01/05 01:37:12;;;;;;;0.60;0.60;;;;;;;8.30;100.00;96231.16;1027127;28;20519;-71
2023/01/05 01:37:42;;;;;;;0.73;0.40;;;;;;;8.34;100.00;96224.41;1022721;29;20023;-69
2023/01/05 01:38:13;;;;;;;0.65;0.40;;;;;;;8.34;100.00;96227.03;1023030;29;20027;-69
2023/01/05 01:38:43;;;;;;;0.40;0.40;;;;;;;8.36;100.00;96230.22;1022229;28;20816;-67
2023/01/05 01:39:14;;;;;;;0.80;0.45;;;;;;;8.35;100.00;96231.25;1022996;29;20054;-70
2023/01/05 01:39:47;;;;;;;0.20;0.20;;;;;;;8.40;100.00;96231.34;1019140;29;20039;-70
2023/01/05 01:40:18;;;;;;;0.32;0.30;;;;;;;8.38;100.00;96228.16;1023096;28;20300;-69
2023/01/05 01:40:49;;;;;;;1.08;0.65;;;;;;;8.32;100.00;96212.63;1027452;28;20027;-72
2023/01/05 01:41:19;;;;;;;0.43;0.43;;;;;;;8.35;100.00;96217.34;1027191;28;20469;-71
2023/01/05 01:41:50;;;;;;;0.65;0.50;;;;;;;8.44;100.00;96215.97;1023985;28;20422;-70
2023/01/05 01:42:20;;;;;;;0.65;0.57;;;;;;;8.52;100.00;96220.84;1023076;28;20027;-71
2023/01/05 01:42:51;;;;;;;0.50;0.30;;;;;;;8.40;100.00;96213.03;1023006;28;20668;-69
2023/01/05 01:43:46;;;;;;;0.32;0.32;;;;;;;8.45;100.00;96228.03;1023159;28;20027;-69
2023/01/05 01:45:04;;;;;;;0.98;0.50;;;;;;;8.48;100.00;96212.66;1029995;28;20042;-68
2023/01/05 01:45:34;;;;;;;0.50;0.40;;;;;;;8.57;100.00;96210.44;1034044;28;20245;-70
2023/01/05 01:46:05;;;;;;;0.65;0.50;;;;;;;8.60;100.00;96223.03;1038580;28;20267;-70
2023/01/05 01:46:35;;;;;;;0.52;0.40;;;;;;;8.56;100.00;96219.31;1030954;28;20022;-68
2023/01/05 01:47:06;;;;;;;0.60;0.43;;;;;;;8.56;100.00;96210.69;1026945;28;20023;-69
2023/01/05 01:47:45;;;;;;;0.95;0.50;;;;;;;8.46;100.00;96203.47;1019129;29;20031;-68
2023/01/05 01:48:18;;;;;;;0.70;0.40;;;;;;;8.49;100.00;96214.25;1020295;29;20094;-69
2023/01/05 01:48:55;;;;;;;0.73;0.50;;;;;;;8.52;100.00;96209.56;1025145;28;20337;-70
2023/01/05 01:49:25;;;;;;;0.68;0.50;;;;;;;8.49;100.00;96218.69;1021504;29;20338;-68
2023/01/05 01:49:57;;;;;;;0.40;0.30;;;;;;;8.46;100.00;96203.47;1016337;29;20331;-69
2023/01/05 01:51:00;;;;;;;0.38;0.38;;;;;;;8.55;100.00;96203.84;1022504;28;20098;-74
2023/01/05 01:51:33;;;;;;;1.92;0.30;;;;;;;8.58;100.00;96209.41;1019153;29;20669;-70
2023/01/05 01:52:04;;;;;;;0.93;0.50;;;;;;;8.58;100.00;96216.47;1021733;28;21143;-69
2023/01/05 01:52:34;;;;;;;0.73;0.60;;;;;;;8.58;100.00;96204.16;1020587;29;20282;-73
2023/01/05 01:53:10;;;;;;;0.43;0.30;;;;;;;8.62;100.00;96199.28;1022773;28;20456;-71
2023/01/05 01:53:43;;;;;;;0.75;0.30;;;;;;;8.62;100.00;96194.84;1019684;29;20087;-68
2023/01/05 01:54:16;;;;;;;0.50;0.30;;;;;;;8.61;100.00;96189.81;1019055;29;20271;-70
2023/01/05 01:54:47;;;;;;;0.40;0.40;;;;;;;8.63;100.00;96198.25;1015203;29;20283;-70
2023/01/05 01:55:18;;;;;;;0.82;0.60;;;;;;;8.46;100.00;96177.31;1019059;29;20318;-68
2023/01/05 01:55:48;;;;;;;1.58;0.60;;;;;;;8.62;100.00;96189.59;1018200;29;20644;-71
2023/01/05 01:56:20;;;;;;;0.57;0.50;;;;;;;8.63;100.00;96183.34;1019351;29;20366;-69
2023/01/05 01:56:52;;;;;;;0.40;0.40;;;;;;;8.60;100.00;96189.03;1019191;29;20493;-71
2023/01/05 01:57:23;;;;;;;0.60;0.40;;;;;;;8.63;100.00;96193.78;1022263;28;20270;-69
2023/01/05 01:57:53;;;;;;;2.28;0.30;;;;;;;8.64;100.00;96190.16;1019322;29;20268;-69
2023/01/05 01:58:25;;;;;;;1.83;0.60;;;;;;;8.61;100.00;96188.00;1023047;29;20035;-69
2023/01/05 01:58:55;;;;;;;0.52;0.52;;;;;;;8.57;100.00;96186.91;1016379;29;20038;-67
2023/01/05 01:59:26;;;;;;;1.10;0.40;;;;;;;8.54;100.00;96181.34;1027023;28;20285;-66
2023/01/05 01:59:57;;;;;;;1.17;0.50;;;;;;;8.60;100.00;96188.25;1035021;28;20030;-67
2023/01/05 02:00:27;;;;;;;0.60;0.40;;;;;;;8.62;100.00;96184.38;1027534;28;20373;-70
2023/01/05 02:00:59;;;;;;;0.38;0.38;;;;;;;8.66;100.00;96188.09;1018918;29;20043;-69
2023/01/05 02:01:30;;;;;;;1.13;0.55;;;;;;;8.59;100.00;96177.00;1026879;28;20022;-67
2023/01/05 02:02:00;;;;;;;0.52;0.30;;;;;;;8.69;100.00;96182.38;1035216;28;20268;-71
2023/01/05 02:02:31;;;;;;;0.32;0.32;;;;;;;8.73;100.00;96186.09;1035103;28;20121;-71
2023/01/05 02:03:01;;;;;;;0.52;0.47;;;;;;;8.63;100.00;96175.50;1035419;28;20036;-70
2023/01/05 02:03:32;;;;;;;0.60;0.40;;;;;;;8.67;100.00;96179.19;1027030;28;20057;-68
2023/01/05 02:04:02;;;;;;;0.40;0.40;;;;;;;8.66;100.00;96193.31;1026985;28;20824;-68
2023/01/05 02:04:33;;;;;;;2.38;0.60;;;;;;;8.63;100.00;96165.03;1031074;28;20045;-71
2023/01/05 02:05:05;;;;;;;0.38;0.38;;;;;;;8.68;100.00;96180.78;1027161;28;20046;-70
2023/01/05 02:05:38;;;;;;;0.40;0.40;;;;;;;8.68;100.00;96187.84;1027022;28;20035;-68
2023/01/05 02:06:09;;;;;;;0.80;0.40;;;;;;;8.77;100.00;96193.47;1030360;28;20262;-69
2023/01/05 02:06:39;;;;;;;0.80;0.40;;;;;;;8.80;100.00;96177.31;1026951;28;20266;-69
2023/01/05 02:07:10;;;;;;;0.50;0.38;;;;;;;8.82;100.00;96189.13;1024243;28;20348;-69
2023/01/05 02:07:45;;;;;;;0.70;0.50;;;;;;;8.78;100.00;96184.59;1026758;28;20046;-69
2023/01/05 02:08:24;;;;;;;0.40;0.40;;;;;;;8.83;100.00;96195.13;1020324;28;20094;-73
2023/01/05 02:08:54;;;;;;;0.40;0.40;;;;;;;8.85;100.00;96206.97;1024614;28;20847;-70
2023/01/05 02:09:24;;;;;;;0.50;0.30;;;;;;;8.86;100.00;96192.84;1022847;29;20274;-71
2023/01/05 02:09:55;;;;;;;0.65;0.47;;;;;;;8.86;100.00;96198.06;1024222;28;20631;-68
2023/01/05 02:10:53;;;;;;;0.50;0.50;;;;;;;8.83;100.00;96198.53;1022929;28;20027;-69
2023/01/05 02:11:49;;;;;;;0.63;0.45;;;;;;;8.80;100.00;96204.25;1018525;29;20099;-72
2023/01/05 02:12:26;;;;;;;0.52;0.38;;;;;;;8.81;100.00;96189.34;1025586;28;20262;-70
2023/01/05 02:13:20;;;;;;;0.30;0.30;;;;;;;8.86;100.00;96194.66;1030068;28;20675;-72
2023/01/05 02:14:26;;;;;;;1.63;0.40;;;;;;;8.84;100.00;96192.28;1028313;28;20283;-71
2023/01/05 02:15:23;;;;;;;0.82;0.60;;;;;;;8.85;100.00;96191.25;1026496;28;20285;-71
2023/01/05 02:16:16;;;;;;;0.50;0.50;;;;;;;8.82;100.00;96177.84;1024655;28;20277;-69
2023/01/05 02:17:14;;;;;;;0.30;0.30;;;;;;;8.77;100.00;96178.56;1022793;29;20279;-68
2023/01/05 02:18:20;;;;;;;0.50;0.50;;;;;;;8.66;100.00;96188.09;1027838;28;20259;-69
2023/01/05 02:19:24;;;;;;;0.40;0.40;;;;;;;8.61;100.00;96202.91;1031833;28;20277;-69
2023/01/05 02:20:21;;;;;;;0.50;0.43;;;;;;;8.54;100.00;96176.91;1030684;28;20268;-69
2023/01/05 02:21:20;;;;;;;0.63;0.45;;;;;;;8.53;100.00;96183.19;1023626;28;20354;-71
2023/01/05 02:22:28;;;;;;;0.47;0.47;;;;;;;8.59;100.00;96191.91;1034300;28;20908;-68
2023/01/05 02:23:36;;;;;;;0.68;0.40;;;;;;;8.65;100.00;96181.28;1037979;28;20710;-67
2023/01/05 02:24:15;;;;;;;0.43;0.30;;;;;;;8.55;100.00;96185.53;1044070;28;20250;-67
2023/01/05 02:25:07;;;;;;;0.50;0.43;;;;;;;8.51;100.00;96180.00;1035424;28;20252;-68
2023/01/05 02:26:11;;;;;;;10.25;0.60;;;;;;;8.46;100.00;96179.94;1034611;28;20302;-67
2023/01/05 02:26:56;;;;;;;0.55;0.55;;;;;;;8.39;100.00;96182.72;1038638;28;20248;-70
2023/01/05 02:27:48;;;;;;;0.40;0.35;;;;;;;8.36;100.00;96177.13;1035698;28;20248;-68
2023/01/05 02:28:36;;;;;;;0.50;0.50;;;;;;;8.34;100.00;96185.19;1031414;28;20253;-68
2023/01/05 02:29:28;;;;;;;1.35;0.50;;;;;;;8.37;100.00;96173.47;1028760;28;20312;-67
2023/01/05 02:29:58;;;;;;;0.55;0.45;;;;;;;8.41;100.00;96174.59;1035985;28;20348;-67
2023/01/05 02:30:59;;;;;;;0.40;0.32;;;;;;;8.44;100.00;96187.22;1039933;28;20267;-66
2023/01/05 02:31:44;;;;;;;0.28;0.28;;;;;;;8.45;100.00;96171.31;1035875;28;20353;-67
2023/01/05 02:32:21;;;;;;;1.80;0.57;;;;;;;8.45;100.00;96171.31;1031594;28;20058;-68
2023/01/05 02:32:56;;;;;;;0.70;0.60;;;;;;;8.40;100.00;96175.66;1027315;28;20266;-70
2023/01/05 02:33:54;;;;;;;0.35;0.32;;;;;;;8.50;100.00;96178.44;1020822;29;20259;-67
2023/01/05 02:34:48;;;;;;;0.22;0.22;;;;;;;8.50;100.00;96181.81;1023751;28;20255;-70
2023/01/05 02:35:39;;;;;;;0.55;0.45;;;;;;;8.52;100.00;96167.72;1032612;28;20249;-69
2023/01/05 02:36:12;;;;;;;;;;;;;;;8.56;100.00;96164.41;1033713;28;20261;-67
2023/01/05 02:36:53;;;;;;;0.50;0.40;;;;;;;8.54;100.00;96168.28;1031243;28;20008;-68
2023/01/05 02:37:27;;;;;;;0.50;0.40;;;;;;;8.53;100.00;96166.69;1027675;28;20387;-67
2023/01/05 02:38:02;;;;;;;0.55;0.35;;;;;;;8.51;100.00;96190.47;1025748;28;20270;-68
2023/01/05 02:38:38;;;;;;;0.73;0.30;;;;;;;8.53;100.00;96157.03;1027887;28;20277;-68
2023/01/05 02:39:12;;;;;;;0.35;0.35;;;;;;;8.53;100.00;96158.84;1025354;28;20262;-70
2023/01/05 02:40:23;;;;;;;0.40;0.40;;;;;;;8.53;100.00;96161.47;1025552;28;20277;-69
2023/01/05 02:40:57;;;;;;;0.40;0.30;;;;;;;8.56;100.00;96161.78;1027059;28;20285;-68
2023/01/05 02:41:39;;;;;;;0.65;0.30;;;;;;;8.61;100.00;96169.69;1031141;28;20042;-67
2023/01/05 02:42:16;;;;;;;0.40;0.40;;;;;;;8.53;100.00;96151.78;1027342;28;20294;-68
2023/01/05 02:42:48;;;;;;;0.40;0.40;;;;;;;8.59;100.00;96166.53;1031404;28;20323;-68
2023/01/05 02:43:19;;;;;;;0.60;0.40;;;;;;;8.54;100.00;96158.59;1031598;28;20284;-69
2023/01/05 02:43:49;;;;;;;0.65;0.40;;;;;;;8.53;100.00;96167.50;1026824;28;20274;-68
2023/01/05 02:44:20;;;;;;;0.35;0.35;;;;;;;8.53;100.00;96157.03;1027398;28;20266;-67
2023/01/05 02:44:51;;;;;;;0.30;0.30;;;;;;;8.51;100.00;96151.22;1031249;28;20034;-68
2023/01/05 02:45:22;;;;;;;1.77;0.57;;;;;;;8.49;100.00;96156.72;1031567;28;20038;-67
2023/01/05 02:45:52;;;;;;;0.65;0.43;;;;;;;8.52;100.00;96176.38;1022671;29;20496;-69
2023/01/05 02:46:23;;;;;;;0.43;0.40;;;;;;;8.57;100.00;96147.66;1023562;29;20338;-69
2023/01/05 02:47:04;;;;;;;1.00;0.50;;;;;;;8.55;100.00;96157.59;1024130;28;20038;-68
2023/01/05 02:47:36;;;;;;;0.45;0.45;;;;;;;8.54;100.00;96169.06;1028955;28;20018;-71
2023/01/05 02:48:06;;;;;;;0.68;0.60;;;;;;;8.55;100.00;96151.53;1027699;28;20349;-68
2023/01/05 02:48:37;;;;;;;0.25;0.25;;;;;;;8.56;100.00;96155.75;1027396;28;20293;-68
2023/01/05 02:49:07;;;;;;;1.35;0.70;;;;;;;8.50;100.00;96147.03;1031387;28;20137;-67
2023/01/05 02:49:39;;;;;;;0.40;0.40;;;;;;;8.51;100.00;96148.63;1023635;29;20528;-68
2023/01/05 02:50:25;;;;;;;1.35;0.50;;;;;;;8.55;100.00;96149.75;1019565;29;20019;-67
2023/01/05 02:51:04;;;;;;;0.82;0.47;;;;;;;8.55;100.00;96139.28;1023598;29;20712;-66
2023/01/05 02:51:39;;;;;;;1.10;0.43;;;;;;;8.54;100.00;96158.59;1030694;28;20377;-68
2023/01/05 02:52:09;;;;;;;0.55;0.40;;;;;;;8.63;100.00;96148.53;1033547;28;20249;-68
2023/01/05 02:52:54;;;;;;;0.47;0.40;;;;;;;8.60;100.00;96136.72;1023387;28;20259;-67
2023/01/05 02:53:27;;;;;;;0.30;0.30;;;;;;;8.61;100.00;96154.00;1031691;28;20029;-70